QFA149 YSSY-NZAA
Flight info
| Callsign | QFA149 |
|---|---|
| Flight time | 2h 22m |
| Altitude | 39000 |
| Route | EVONN L521 LUNBI |
| Aircraft | A388/J-SADE2E3FGHIJ4J5M1P2RWYZ/LB1D1 |
Departure
| Time | 2026-05-05 16:54 |
|---|---|
| Airport | Sydney Kingsford Smith International Airport (YSSY) |
Arrival
| Time | 2026-05-05 19:17 |
|---|---|
| Airport | Auckland International Airport (NZAA) |
| Time | Latitude | Longitude | Altitude | Speed | Heading |
|---|---|---|---|---|---|
| 2026-05-05 16:33 | -33.93562 | 151.16820 | 26 ft | 0 kts | 237° |
| 2026-05-05 16:43 | -33.93555 | 151.16833 | 30 ft | 4 kts | 240° |
| 2026-05-05 16:44 | -33.93543 | 151.16862 | 26 ft | 4 kts | 244° |
| 2026-05-05 16:44 | -33.93535 | 151.16891 | 31 ft | 4 kts | 280° |
| 2026-05-05 16:44 | -33.93547 | 151.16914 | 27 ft | 4 kts | 338° |
| 2026-05-05 16:44 | -33.93567 | 151.16920 | 31 ft | 0 kts | 355° |
| 2026-05-05 16:47 | -33.93560 | 151.16919 | 30 ft | 4 kts | 355° |
| 2026-05-05 16:47 | -33.93515 | 151.16916 | 29 ft | 8 kts | 358° |
| 2026-05-05 16:47 | -33.93449 | 151.16907 | 29 ft | 11 kts | 349° |
| 2026-05-05 16:48 | -33.93367 | 151.16888 | 29 ft | 13 kts | 359° |
| 2026-05-05 16:48 | -33.93280 | 151.16927 | 29 ft | 13 kts | 24° |
| 2026-05-05 16:48 | -33.93180 | 151.16940 | 30 ft | 16 kts | 351° |
| 2026-05-05 16:48 | -33.93073 | 151.16915 | 28 ft | 13 kts | 347° |
| 2026-05-05 16:49 | -33.93010 | 151.16901 | 30 ft | 4 kts | 18° |
| 2026-05-05 16:49 | -33.92991 | 151.16924 | 30 ft | 5 kts | 74° |
| 2026-05-05 16:49 | -33.92982 | 151.16965 | 27 ft | 1 kts | 75° |
| 2026-05-05 16:49 | -33.92978 | 151.16984 | 26 ft | 3 kts | 76° |
| 2026-05-05 16:50 | -33.92978 | 151.16986 | 26 ft | 0 kts | 76° |
| 2026-05-05 16:52 | -33.92974 | 151.17002 | 29 ft | 4 kts | 75° |
| 2026-05-05 16:53 | -33.92962 | 151.17061 | 29 ft | 10 kts | 76° |
| 2026-05-05 16:53 | -33.92964 | 151.17153 | 30 ft | 9 kts | 135° |
| 2026-05-05 16:53 | -33.93029 | 151.17185 | 29 ft | 8 kts | 170° |
| 2026-05-05 16:53 | -33.93034 | 151.17186 | 27 ft | 0 kts | 170° |
| 2026-05-05 16:54 | -33.93207 | 151.17229 | 27 ft | 69 kts | 168° |
| 2026-05-05 16:54 | -33.93966 | 151.17426 | 25 ft | 149 kts | 167° |
| 2026-05-05 16:54 | -33.95088 | 151.17759 | 396 ft | 166 kts | 168° |
| 2026-05-05 16:54 | -33.96193 | 151.18133 | 1246 ft | 162 kts | 171° |
| 2026-05-05 16:55 | -33.97314 | 151.18515 | 1841 ft | 176 kts | 170° |
| 2026-05-05 16:55 | -33.98531 | 151.18958 | 2222 ft | 190 kts | 169° |
| 2026-05-05 16:55 | -33.99856 | 151.19460 | 2391 ft | 209 kts | 167° |
| 2026-05-05 16:55 | -34.01289 | 151.20071 | 2500 ft | 235 kts | 155° |
| 2026-05-05 16:56 | -34.02535 | 151.21514 | 2872 ft | 264 kts | 124° |
| 2026-05-05 16:56 | -34.03185 | 151.23669 | 3490 ft | 280 kts | 104° |
| 2026-05-05 16:56 | -34.03589 | 151.25992 | 3873 ft | 285 kts | 103° |
| 2026-05-05 16:56 | -34.03995 | 151.28325 | 3916 ft | 283 kts | 103° |
| 2026-05-05 16:57 | -34.04401 | 151.30649 | 3970 ft | 283 kts | 103° |
| 2026-05-05 16:57 | -34.04823 | 151.32979 | 4269 ft | 286 kts | 105° |
| 2026-05-05 16:57 | -34.05328 | 151.35338 | 4873 ft | 299 kts | 102° |
| 2026-05-05 16:57 | -34.05759 | 151.37780 | 5836 ft | 295 kts | 100° |
| 2026-05-05 16:58 | -34.06202 | 151.40229 | 6640 ft | 304 kts | 100° |
| 2026-05-05 16:58 | -34.06691 | 151.42730 | 7427 ft | 309 kts | 101° |
| 2026-05-05 16:58 | -34.07215 | 151.45262 | 8227 ft | 314 kts | 101° |
| 2026-05-05 16:58 | -34.07757 | 151.47804 | 9035 ft | 319 kts | 101° |
| 2026-05-05 16:59 | -34.08318 | 151.50417 | 9826 ft | 324 kts | 101° |
| 2026-05-05 16:59 | -34.08893 | 151.53092 | 10369 ft | 338 kts | 101° |
| 2026-05-05 16:59 | -34.09499 | 151.55927 | 10595 ft | 360 kts | 102° |
| 2026-05-05 16:59 | -34.10135 | 151.58902 | 10894 ft | 376 kts | 102° |
| 2026-05-05 17:00 | -34.10796 | 151.61985 | 11559 ft | 380 kts | 102° |
| 2026-05-05 17:00 | -34.11465 | 151.65094 | 12157 ft | 387 kts | 102° |
| 2026-05-05 17:00 | -34.12141 | 151.68255 | 12834 ft | 390 kts | 102° |
| 2026-05-05 17:00 | -34.12822 | 151.71450 | 13530 ft | 394 kts | 102° |
| 2026-05-05 17:01 | -34.13499 | 151.74626 | 14160 ft | 398 kts | 102° |
| 2026-05-05 17:01 | -34.14198 | 151.77917 | 14778 ft | 401 kts | 102° |
| 2026-05-05 17:01 | -34.14894 | 151.81197 | 15363 ft | 406 kts | 102° |
| 2026-05-05 17:01 | -34.15588 | 151.84469 | 15939 ft | 410 kts | 102° |
| 2026-05-05 17:02 | -34.16297 | 151.87817 | 16511 ft | 414 kts | 101° |
| 2026-05-05 17:02 | -34.17012 | 151.91202 | 17096 ft | 418 kts | 101° |
| 2026-05-05 17:02 | -34.17733 | 151.94619 | 17679 ft | 421 kts | 101° |
| 2026-05-05 17:02 | -34.18456 | 151.98047 | 18282 ft | 423 kts | 101° |
| 2026-05-05 17:03 | -34.19186 | 152.01519 | 18778 ft | 427 kts | 101° |
| 2026-05-05 17:03 | -34.20041 | 152.04977 | 19235 ft | 432 kts | 107° |
| 2026-05-05 17:03 | -34.21055 | 152.08407 | 19708 ft | 436 kts | 107° |
| 2026-05-05 17:03 | -34.22071 | 152.11873 | 20179 ft | 439 kts | 107° |
| 2026-05-05 17:04 | -34.23089 | 152.15360 | 20634 ft | 442 kts | 107° |
| 2026-05-05 17:04 | -34.24115 | 152.18883 | 21112 ft | 446 kts | 107° |
| 2026-05-05 17:04 | -34.25147 | 152.22432 | 21577 ft | 449 kts | 106° |
| 2026-05-05 17:04 | -34.26184 | 152.26002 | 22030 ft | 452 kts | 106° |
| 2026-05-05 17:05 | -34.27226 | 152.29596 | 22472 ft | 456 kts | 106° |
| 2026-05-05 17:05 | -34.28278 | 152.33231 | 22938 ft | 459 kts | 106° |
| 2026-05-05 17:05 | -34.29334 | 152.36885 | 23390 ft | 462 kts | 106° |
| 2026-05-05 17:05 | -34.30396 | 152.40564 | 23788 ft | 466 kts | 106° |
| 2026-05-05 17:06 | -34.31468 | 152.44279 | 24175 ft | 468 kts | 106° |
| 2026-05-05 17:06 | -34.32542 | 152.48011 | 24553 ft | 471 kts | 106° |
| 2026-05-05 17:06 | -34.33622 | 152.51766 | 24943 ft | 474 kts | 106° |
| 2026-05-05 17:06 | -34.34695 | 152.55500 | 25398 ft | 474 kts | 106° |
| 2026-05-05 17:07 | -34.35795 | 152.59333 | 25799 ft | 478 kts | 106° |
| 2026-05-05 17:07 | -34.36870 | 152.63091 | 26202 ft | 481 kts | 106° |
| 2026-05-05 17:07 | -34.37968 | 152.66930 | 26639 ft | 484 kts | 106° |
| 2026-05-05 17:07 | -34.39073 | 152.70801 | 27066 ft | 488 kts | 106° |
| 2026-05-05 17:08 | -34.40183 | 152.74692 | 27514 ft | 491 kts | 106° |
| 2026-05-05 17:08 | -34.41301 | 152.78617 | 27958 ft | 495 kts | 106° |
| 2026-05-05 17:08 | -34.42427 | 152.82575 | 28408 ft | 498 kts | 106° |
| 2026-05-05 17:08 | -34.43555 | 152.86543 | 28970 ft | 499 kts | 106° |
| 2026-05-05 17:09 | -34.44688 | 152.90537 | 29382 ft | 503 kts | 106° |
| 2026-05-05 17:09 | -34.45826 | 152.94558 | 29839 ft | 507 kts | 107° |
| 2026-05-05 17:09 | -34.46976 | 152.98623 | 30285 ft | 511 kts | 107° |
| 2026-05-05 17:09 | -34.47740 | 153.01328 | 30534 ft | 513 kts | 107° |
| 2026-05-05 17:10 | -34.48901 | 153.05443 | 30944 ft | 517 kts | 107° |
| 2026-05-05 17:10 | -34.50068 | 153.09583 | 31311 ft | 521 kts | 107° |
| 2026-05-05 17:10 | -34.51240 | 153.13748 | 31655 ft | 524 kts | 107° |
| 2026-05-05 17:10 | -34.52413 | 153.17923 | 32236 ft | 523 kts | 107° |
| 2026-05-05 17:11 | -34.53592 | 153.22127 | 32537 ft | 528 kts | 107° |
| 2026-05-05 17:11 | -34.54781 | 153.26371 | 32918 ft | 532 kts | 107° |
| 2026-05-05 17:11 | -34.55973 | 153.30636 | 33290 ft | 535 kts | 107° |
| 2026-05-05 17:11 | -34.57170 | 153.34924 | 33660 ft | 539 kts | 107° |
| 2026-05-05 17:12 | -34.58376 | 153.39249 | 34018 ft | 543 kts | 107° |
| 2026-05-05 17:12 | -34.59587 | 153.43601 | 34325 ft | 546 kts | 107° |
| 2026-05-05 17:12 | -34.60802 | 153.47970 | 34842 ft | 545 kts | 107° |
| 2026-05-05 17:12 | -34.62013 | 153.52331 | 35212 ft | 547 kts | 107° |
| 2026-05-05 17:13 | -34.63227 | 153.56714 | 35614 ft | 548 kts | 107° |
| 2026-05-05 17:13 | -34.64441 | 153.61105 | 36026 ft | 548 kts | 107° |
| 2026-05-05 17:13 | -34.65656 | 153.65503 | 36438 ft | 549 kts | 107° |
| 2026-05-05 17:13 | -34.66870 | 153.69906 | 36849 ft | 550 kts | 107° |
| 2026-05-05 17:14 | -34.68083 | 153.74313 | 37225 ft | 551 kts | 107° |
| 2026-05-05 17:14 | -34.69294 | 153.78719 | 37730 ft | 549 kts | 107° |
| 2026-05-05 17:14 | -34.70503 | 153.83127 | 38099 ft | 551 kts | 107° |
| 2026-05-05 17:14 | -34.71715 | 153.87549 | 38467 ft | 552 kts | 107° |
| 2026-05-05 17:15 | -34.72924 | 153.91973 | 38807 ft | 553 kts | 107° |
| 2026-05-05 17:15 | -34.74137 | 153.96415 | 39023 ft | 556 kts | 107° |
| 2026-05-05 17:15 | -34.76555 | 154.05288 | 39066 ft | 553 kts | 107° |
| 2026-05-05 17:16 | -34.78970 | 154.14183 | 39048 ft | 555 kts | 107° |
| 2026-05-05 17:16 | -34.81383 | 154.23099 | 39047 ft | 555 kts | 107° |
| 2026-05-05 17:17 | -34.83791 | 154.32027 | 39045 ft | 555 kts | 107° |
| 2026-05-05 17:17 | -34.86192 | 154.40961 | 39039 ft | 555 kts | 107° |
| 2026-05-05 17:18 | -34.88591 | 154.49912 | 39046 ft | 556 kts | 107° |
| 2026-05-05 17:18 | -34.90983 | 154.58869 | 39058 ft | 556 kts | 107° |
| 2026-05-05 17:19 | -34.93371 | 154.67842 | 39076 ft | 557 kts | 107° |
| 2026-05-05 17:19 | -34.95759 | 154.76842 | 39038 ft | 559 kts | 107° |
| 2026-05-05 17:20 | -34.98148 | 154.85877 | 39054 ft | 560 kts | 107° |
| 2026-05-05 17:20 | -35.00519 | 154.94870 | 39062 ft | 561 kts | 107° |
| 2026-05-05 17:21 | -35.02906 | 155.03952 | 39039 ft | 563 kts | 107° |
| 2026-05-05 17:22 | -35.06472 | 155.17628 | 39068 ft | 565 kts | 107° |
| 2026-05-05 17:22 | -35.08855 | 155.26773 | 39086 ft | 565 kts | 107° |
| 2026-05-05 17:23 | -35.11228 | 155.35921 | 39087 ft | 565 kts | 107° |
| 2026-05-05 17:23 | -35.13592 | 155.45066 | 39087 ft | 564 kts | 107° |
| 2026-05-05 17:24 | -35.15947 | 155.54212 | 39086 ft | 564 kts | 107° |
| 2026-05-05 17:24 | -35.18291 | 155.63349 | 39084 ft | 563 kts | 107° |
| 2026-05-05 17:25 | -35.20630 | 155.72496 | 39075 ft | 563 kts | 107° |
| 2026-05-05 17:25 | -35.22942 | 155.81569 | 39070 ft | 563 kts | 107° |
| 2026-05-05 17:26 | -35.25267 | 155.90725 | 39076 ft | 563 kts | 107° |
| 2026-05-05 17:26 | -35.27582 | 155.99876 | 39069 ft | 563 kts | 107° |
| 2026-05-05 17:27 | -35.29894 | 156.09043 | 39072 ft | 563 kts | 107° |
| 2026-05-05 17:27 | -35.32198 | 156.18214 | 39079 ft | 564 kts | 107° |
| 2026-05-05 17:28 | -35.34486 | 156.27352 | 39084 ft | 564 kts | 107° |
| 2026-05-05 17:28 | -35.36774 | 156.36527 | 39087 ft | 563 kts | 107° |
| 2026-05-05 17:29 | -35.39056 | 156.45705 | 39088 ft | 563 kts | 107° |
| 2026-05-05 17:29 | -35.41331 | 156.54893 | 39092 ft | 563 kts | 107° |
| 2026-05-05 17:30 | -35.43596 | 156.64074 | 39104 ft | 562 kts | 107° |
| 2026-05-05 17:30 | -35.45850 | 156.73242 | 39105 ft | 561 kts | 107° |
| 2026-05-05 17:31 | -35.48093 | 156.82396 | 39093 ft | 560 kts | 107° |
| 2026-05-05 17:31 | -35.50352 | 156.91651 | 39106 ft | 574 kts | 107° |
| 2026-05-05 17:32 | -35.52643 | 157.01073 | 39101 ft | 577 kts | 107° |
| 2026-05-05 17:32 | -35.54931 | 157.10518 | 39089 ft | 577 kts | 107° |
| 2026-05-05 17:33 | -35.57198 | 157.19913 | 39092 ft | 577 kts | 107° |
| 2026-05-05 17:33 | -35.59468 | 157.29355 | 39114 ft | 575 kts | 107° |
| 2026-05-05 17:34 | -35.61730 | 157.38799 | 39111 ft | 575 kts | 107° |
| 2026-05-05 17:34 | -35.63985 | 157.48251 | 39111 ft | 575 kts | 106° |
| 2026-05-05 17:35 | -35.66231 | 157.57699 | 39107 ft | 573 kts | 107° |
| 2026-05-05 17:35 | -35.68432 | 157.66997 | 39113 ft | 573 kts | 106° |
| 2026-05-05 17:36 | -35.70653 | 157.76413 | 39113 ft | 573 kts | 106° |
| 2026-05-05 17:36 | -35.72863 | 157.85819 | 39122 ft | 573 kts | 106° |
| 2026-05-05 17:37 | -35.75067 | 157.95237 | 39128 ft | 571 kts | 106° |
| 2026-05-05 17:37 | -35.77257 | 158.04619 | 39127 ft | 571 kts | 106° |
| 2026-05-05 17:38 | -35.79083 | 158.14117 | 39130 ft | 571 kts | 101° |
| 2026-05-05 17:38 | -35.80722 | 158.23670 | 39127 ft | 568 kts | 102° |
| 2026-05-05 17:39 | -35.82367 | 158.33168 | 39136 ft | 567 kts | 102° |
| 2026-05-05 17:39 | -35.83987 | 158.42625 | 39134 ft | 567 kts | 102° |
| 2026-05-05 17:40 | -35.85600 | 158.52131 | 39140 ft | 567 kts | 102° |
| 2026-05-05 17:40 | -35.87208 | 158.61669 | 39146 ft | 568 kts | 102° |
| 2026-05-05 17:41 | -35.88807 | 158.71201 | 39149 ft | 567 kts | 102° |
| 2026-05-05 17:41 | -35.90390 | 158.80683 | 39150 ft | 567 kts | 101° |
| 2026-05-05 17:42 | -35.91971 | 158.90205 | 39153 ft | 565 kts | 102° |
| 2026-05-05 17:42 | -35.93533 | 158.99664 | 39156 ft | 562 kts | 101° |
| 2026-05-05 17:43 | -35.95089 | 159.09134 | 39157 ft | 563 kts | 101° |
| 2026-05-05 17:43 | -35.96637 | 159.18601 | 39163 ft | 563 kts | 101° |
| 2026-05-05 17:44 | -35.98172 | 159.28040 | 39163 ft | 558 kts | 101° |
| 2026-05-05 17:44 | -35.99693 | 159.37439 | 39166 ft | 559 kts | 101° |
| 2026-05-05 17:45 | -36.01209 | 159.46856 | 39168 ft | 559 kts | 101° |
| 2026-05-05 17:45 | -36.02706 | 159.56208 | 39170 ft | 557 kts | 101° |
| 2026-05-05 17:46 | -36.04198 | 159.65572 | 39182 ft | 555 kts | 101° |
| 2026-05-05 17:46 | -36.05678 | 159.74913 | 39177 ft | 555 kts | 101° |
| 2026-05-05 17:47 | -36.07157 | 159.84293 | 39183 ft | 555 kts | 101° |
| 2026-05-05 17:47 | -36.08622 | 159.93644 | 39189 ft | 554 kts | 101° |
| 2026-05-05 17:48 | -36.10080 | 160.02987 | 39189 ft | 553 kts | 101° |
| 2026-05-05 17:48 | -36.11531 | 160.12344 | 39196 ft | 553 kts | 101° |
| 2026-05-05 17:49 | -36.12973 | 160.21689 | 39199 ft | 553 kts | 101° |
| 2026-05-05 17:49 | -36.14401 | 160.30999 | 39196 ft | 549 kts | 101° |
| 2026-05-05 17:50 | -36.15820 | 160.40298 | 39205 ft | 550 kts | 101° |
| 2026-05-05 17:50 | -36.17233 | 160.49605 | 39207 ft | 550 kts | 101° |
| 2026-05-05 17:51 | -36.18626 | 160.58837 | 39217 ft | 549 kts | 101° |
| 2026-05-05 17:51 | -36.20021 | 160.68127 | 39215 ft | 548 kts | 101° |
| 2026-05-05 17:52 | -36.21408 | 160.77413 | 39218 ft | 548 kts | 101° |
| 2026-05-05 17:52 | -36.22775 | 160.86619 | 39218 ft | 548 kts | 101° |
| 2026-05-05 17:53 | -36.24145 | 160.95898 | 39226 ft | 547 kts | 101° |
| 2026-05-05 17:53 | -36.25507 | 161.05174 | 39233 ft | 547 kts | 101° |
| 2026-05-05 17:54 | -36.26862 | 161.14450 | 39231 ft | 547 kts | 101° |
| 2026-05-05 17:54 | -36.28210 | 161.23735 | 39241 ft | 546 kts | 101° |
| 2026-05-05 17:55 | -36.29546 | 161.32990 | 39238 ft | 545 kts | 101° |
| 2026-05-05 17:55 | -36.30866 | 161.42183 | 39236 ft | 546 kts | 101° |
| 2026-05-05 17:56 | -36.32190 | 161.51460 | 39246 ft | 545 kts | 101° |
| 2026-05-05 17:56 | -36.33504 | 161.60721 | 39249 ft | 545 kts | 101° |
| 2026-05-05 17:57 | -36.34589 | 161.68411 | 39250 ft | 545 kts | 101° |
| 2026-05-05 17:57 | -36.35890 | 161.77672 | 39240 ft | 545 kts | 101° |
| 2026-05-05 17:58 | -36.37185 | 161.86946 | 39255 ft | 545 kts | 101° |
| 2026-05-05 17:58 | -36.38470 | 161.96209 | 39253 ft | 545 kts | 100° |
| 2026-05-05 17:59 | -36.39749 | 162.05477 | 39257 ft | 545 kts | 100° |
| 2026-05-05 17:59 | -36.41020 | 162.14743 | 39264 ft | 545 kts | 100° |
| 2026-05-05 18:00 | -36.42286 | 162.24028 | 39265 ft | 545 kts | 100° |
| 2026-05-05 18:00 | -36.43541 | 162.33291 | 39264 ft | 544 kts | 100° |
| 2026-05-05 18:01 | -36.44788 | 162.42550 | 39271 ft | 544 kts | 100° |
| 2026-05-05 18:01 | -36.46030 | 162.51828 | 39271 ft | 544 kts | 100° |
| 2026-05-05 18:02 | -36.47264 | 162.61103 | 39273 ft | 544 kts | 100° |
| 2026-05-05 18:02 | -36.48492 | 162.70384 | 39277 ft | 544 kts | 100° |
| 2026-05-05 18:03 | -36.49703 | 162.79596 | 39285 ft | 544 kts | 100° |
| 2026-05-05 18:03 | -36.50919 | 162.88881 | 39292 ft | 544 kts | 100° |
| 2026-05-05 18:04 | -36.52130 | 162.98153 | 39291 ft | 543 kts | 100° |
| 2026-05-05 18:04 | -36.53311 | 163.07414 | 39289 ft | 542 kts | 99° |
| 2026-05-05 18:05 | -36.54477 | 163.16671 | 39294 ft | 542 kts | 100° |
| 2026-05-05 18:05 | -36.55654 | 163.25916 | 39305 ft | 542 kts | 100° |
| 2026-05-05 18:06 | -36.56829 | 163.35161 | 39305 ft | 539 kts | 100° |
| 2026-05-05 18:06 | -36.57993 | 163.44376 | 39305 ft | 539 kts | 99° |
| 2026-05-05 18:07 | -36.59145 | 163.53588 | 39311 ft | 539 kts | 99° |
| 2026-05-05 18:07 | -36.60288 | 163.62809 | 39313 ft | 539 kts | 99° |
| 2026-05-05 18:08 | -36.61420 | 163.72008 | 39320 ft | 536 kts | 99° |
| 2026-05-05 18:08 | -36.62543 | 163.81194 | 39320 ft | 536 kts | 99° |
| 2026-05-05 18:09 | -36.63650 | 163.90306 | 39319 ft | 536 kts | 99° |
| 2026-05-05 18:09 | -36.64759 | 163.99491 | 39328 ft | 536 kts | 99° |
| 2026-05-05 18:10 | -36.65858 | 164.08664 | 39333 ft | 534 kts | 99° |
| 2026-05-05 18:10 | -36.66950 | 164.17829 | 39326 ft | 535 kts | 99° |
| 2026-05-05 18:11 | -36.68034 | 164.26996 | 39340 ft | 535 kts | 99° |
| 2026-05-05 18:11 | -36.69104 | 164.36099 | 39342 ft | 535 kts | 99° |
| 2026-05-05 18:12 | -36.70173 | 164.45263 | 39338 ft | 534 kts | 99° |
| 2026-05-05 18:12 | -36.71235 | 164.54424 | 39342 ft | 534 kts | 99° |
| 2026-05-05 18:13 | -36.72289 | 164.63584 | 39345 ft | 534 kts | 99° |
| 2026-05-05 18:13 | -36.73337 | 164.72753 | 39354 ft | 534 kts | 99° |
| 2026-05-05 18:14 | -36.74379 | 164.81928 | 39355 ft | 534 kts | 99° |
| 2026-05-05 18:14 | -36.75413 | 164.91107 | 39350 ft | 534 kts | 99° |
| 2026-05-05 18:15 | -36.76439 | 165.00274 | 39357 ft | 534 kts | 98° |
| 2026-05-05 18:15 | -36.77453 | 165.09397 | 39361 ft | 533 kts | 99° |
| 2026-05-05 18:16 | -36.78465 | 165.18575 | 39361 ft | 534 kts | 99° |
| 2026-05-05 18:16 | -36.79470 | 165.27744 | 39362 ft | 534 kts | 99° |
| 2026-05-05 18:17 | -36.80472 | 165.36958 | 39367 ft | 535 kts | 98° |
| 2026-05-05 18:17 | -36.81466 | 165.46169 | 39366 ft | 535 kts | 98° |
| 2026-05-05 18:18 | -36.82451 | 165.55369 | 39369 ft | 535 kts | 98° |
| 2026-05-05 18:18 | -36.83431 | 165.64580 | 39372 ft | 535 kts | 98° |
| 2026-05-05 18:19 | -36.84398 | 165.73743 | 39371 ft | 535 kts | 98° |
| 2026-05-05 18:19 | -36.85361 | 165.82947 | 39373 ft | 534 kts | 98° |
| 2026-05-05 18:20 | -36.86317 | 165.92148 | 39377 ft | 534 kts | 98° |
| 2026-05-05 18:20 | -36.87267 | 166.01350 | 39381 ft | 534 kts | 98° |
| 2026-05-05 18:21 | -36.88209 | 166.10556 | 39385 ft | 534 kts | 98° |
| 2026-05-05 18:21 | -36.89142 | 166.19749 | 39383 ft | 532 kts | 98° |
| 2026-05-05 18:22 | -36.90067 | 166.28925 | 39387 ft | 532 kts | 98° |
| 2026-05-05 18:22 | -36.90985 | 166.38109 | 39388 ft | 532 kts | 98° |
| 2026-05-05 18:23 | -36.91896 | 166.47290 | 39387 ft | 532 kts | 98° |
| 2026-05-05 18:23 | -36.92797 | 166.56456 | 39393 ft | 530 kts | 98° |
| 2026-05-05 18:24 | -36.93690 | 166.65607 | 39398 ft | 530 kts | 98° |
| 2026-05-05 18:24 | -36.94570 | 166.74695 | 39398 ft | 530 kts | 98° |
| 2026-05-05 18:25 | -36.95450 | 166.83860 | 39397 ft | 530 kts | 98° |
| 2026-05-05 18:25 | -36.96322 | 166.93020 | 39401 ft | 531 kts | 98° |
| 2026-05-05 18:26 | -36.97188 | 167.02187 | 39401 ft | 531 kts | 98° |
| 2026-05-05 18:26 | -36.98047 | 167.11360 | 39411 ft | 531 kts | 98° |
| 2026-05-05 18:27 | -36.98898 | 167.20526 | 39408 ft | 531 kts | 98° |
| 2026-05-05 18:27 | -36.99742 | 167.29693 | 39414 ft | 530 kts | 98° |
| 2026-05-05 18:28 | -37.00996 | 167.43468 | 39415 ft | 530 kts | 98° |
| 2026-05-05 18:28 | -37.01822 | 167.52633 | 39417 ft | 530 kts | 98° |
| 2026-05-05 18:29 | -37.02642 | 167.61813 | 39421 ft | 529 kts | 98° |
| 2026-05-05 18:29 | -37.03449 | 167.70939 | 39422 ft | 528 kts | 97° |
| 2026-05-05 18:30 | -37.04245 | 167.80008 | 39422 ft | 528 kts | 97° |
| 2026-05-05 18:30 | -37.05040 | 167.89151 | 39421 ft | 528 kts | 97° |
| 2026-05-05 18:31 | -37.05827 | 167.98285 | 39431 ft | 527 kts | 97° |
| 2026-05-05 18:31 | -37.06602 | 168.07359 | 39422 ft | 523 kts | 97° |
| 2026-05-05 18:32 | -37.07369 | 168.16425 | 39426 ft | 524 kts | 97° |
| 2026-05-05 18:32 | -37.08130 | 168.25505 | 39427 ft | 524 kts | 97° |
| 2026-05-05 18:33 | -37.08884 | 168.34580 | 39429 ft | 523 kts | 97° |
| 2026-05-05 18:33 | -37.09628 | 168.43631 | 39437 ft | 522 kts | 97° |
| 2026-05-05 18:34 | -37.10365 | 168.52672 | 39436 ft | 522 kts | 97° |
| 2026-05-05 18:34 | -37.11088 | 168.61636 | 39437 ft | 522 kts | 96° |
| 2026-05-05 18:35 | -37.11812 | 168.70685 | 39438 ft | 522 kts | 96° |
| 2026-05-05 18:35 | -37.12530 | 168.79755 | 39439 ft | 519 kts | 96° |
| 2026-05-05 18:36 | -37.13236 | 168.88762 | 39442 ft | 518 kts | 96° |
| 2026-05-05 18:36 | -37.13933 | 168.97736 | 39436 ft | 521 kts | 96° |
| 2026-05-05 18:37 | -37.14626 | 169.06754 | 39437 ft | 520 kts | 96° |
| 2026-05-05 18:37 | -37.15314 | 169.15796 | 39436 ft | 519 kts | 96° |
| 2026-05-05 18:38 | -37.15994 | 169.24834 | 39435 ft | 521 kts | 96° |
| 2026-05-05 18:38 | -37.16667 | 169.33864 | 39444 ft | 522 kts | 96° |
| 2026-05-05 18:39 | -37.17334 | 169.42904 | 39453 ft | 521 kts | 96° |
| 2026-05-05 18:39 | -37.17988 | 169.51868 | 39446 ft | 518 kts | 96° |
| 2026-05-05 18:40 | -37.18638 | 169.60869 | 39447 ft | 519 kts | 96° |
| 2026-05-05 18:40 | -37.19283 | 169.69882 | 39453 ft | 519 kts | 96° |
| 2026-05-05 18:41 | -37.19920 | 169.78897 | 39456 ft | 517 kts | 96° |
| 2026-05-05 18:41 | -37.20550 | 169.87914 | 39349 ft | 523 kts | 96° |
| 2026-05-05 18:42 | -37.21185 | 169.97086 | 39349 ft | 527 kts | 96° |
| 2026-05-05 18:42 | -37.21811 | 170.06247 | 39356 ft | 527 kts | 96° |
| 2026-05-05 18:43 | -37.22430 | 170.15415 | 39353 ft | 528 kts | 96° |
| 2026-05-05 18:43 | -37.23043 | 170.24589 | 39354 ft | 527 kts | 96° |
| 2026-05-05 18:44 | -37.23646 | 170.33715 | 39358 ft | 528 kts | 96° |
| 2026-05-05 18:44 | -37.24250 | 170.42892 | 39357 ft | 528 kts | 96° |
| 2026-05-05 18:45 | -37.24849 | 170.52085 | 39359 ft | 528 kts | 96° |
| 2026-05-05 18:45 | -37.25439 | 170.61271 | 39362 ft | 528 kts | 95° |
| 2026-05-05 18:46 | -37.25626 | 170.68929 | 39359 ft | 529 kts | 90° |
| 2026-05-05 18:46 | -37.25328 | 170.78152 | 39361 ft | 529 kts | 89° |
| 2026-05-05 18:47 | -37.25086 | 170.87396 | 39358 ft | 530 kts | 89° |
| 2026-05-05 18:47 | -37.24829 | 170.96643 | 39368 ft | 529 kts | 89° |
| 2026-05-05 18:48 | -37.24556 | 171.05869 | 39365 ft | 529 kts | 89° |
| 2026-05-05 18:48 | -37.24274 | 171.15103 | 39368 ft | 529 kts | 89° |
| 2026-05-05 18:49 | -37.23986 | 171.24325 | 39368 ft | 529 kts | 89° |
| 2026-05-05 18:49 | -37.23689 | 171.33556 | 39367 ft | 529 kts | 89° |
| 2026-05-05 18:50 | -37.23386 | 171.42785 | 39363 ft | 529 kts | 89° |
| 2026-05-05 18:50 | -37.23076 | 171.52018 | 39373 ft | 529 kts | 89° |
| 2026-05-05 18:51 | -37.22759 | 171.61235 | 39371 ft | 529 kts | 88° |
| 2026-05-05 18:51 | -37.22436 | 171.70391 | 39382 ft | 527 kts | 88° |
| 2026-05-05 18:52 | -37.22106 | 171.79585 | 39372 ft | 527 kts | 88° |
| 2026-05-05 18:52 | -37.21769 | 171.88754 | 39379 ft | 521 kts | 88° |
| 2026-05-05 18:53 | -37.21600 | 171.93241 | 39336 ft | 509 kts | 88° |
| 2026-05-05 18:53 | -37.21434 | 171.97640 | 39142 ft | 502 kts | 88° |
| 2026-05-05 18:53 | -37.21268 | 172.02005 | 38592 ft | 500 kts | 88° |
| 2026-05-05 18:53 | -37.21100 | 172.06378 | 37709 ft | 503 kts | 89° |
| 2026-05-05 18:54 | -37.20929 | 172.10773 | 36903 ft | 505 kts | 89° |
| 2026-05-05 18:54 | -37.20756 | 172.15183 | 36060 ft | 506 kts | 90° |
| 2026-05-05 18:54 | -37.20581 | 172.19606 | 35194 ft | 509 kts | 90° |
| 2026-05-05 18:54 | -37.20404 | 172.24037 | 34498 ft | 508 kts | 90° |
| 2026-05-05 18:55 | -37.20226 | 172.28439 | 33887 ft | 503 kts | 90° |
| 2026-05-05 18:55 | -37.20049 | 172.32796 | 33297 ft | 498 kts | 90° |
| 2026-05-05 18:55 | -37.19873 | 172.37099 | 32742 ft | 492 kts | 90° |
| 2026-05-05 18:55 | -37.19696 | 172.41380 | 32176 ft | 488 kts | 90° |
| 2026-05-05 18:56 | -37.19523 | 172.45550 | 31578 ft | 484 kts | 89° |
| 2026-05-05 18:56 | -37.19344 | 172.49808 | 30988 ft | 480 kts | 89° |
| 2026-05-05 18:56 | -37.19168 | 172.53968 | 30400 ft | 476 kts | 89° |
| 2026-05-05 18:56 | -37.18993 | 172.58048 | 29795 ft | 472 kts | 89° |
| 2026-05-05 18:57 | -37.18815 | 172.62191 | 29160 ft | 483 kts | 89° |
| 2026-05-05 18:57 | -37.18632 | 172.66465 | 28585 ft | 493 kts | 89° |
| 2026-05-05 18:57 | -37.18443 | 172.70761 | 27964 ft | 491 kts | 89° |
| 2026-05-05 18:57 | -37.18254 | 172.75009 | 27342 ft | 486 kts | 89° |
| 2026-05-05 18:58 | -37.18065 | 172.79223 | 26744 ft | 481 kts | 89° |
| 2026-05-05 18:58 | -37.17876 | 172.83388 | 26129 ft | 475 kts | 88° |
| 2026-05-05 18:58 | -37.17690 | 172.87505 | 25527 ft | 471 kts | 88° |
| 2026-05-05 18:58 | -37.17503 | 172.91589 | 24927 ft | 467 kts | 88° |
| 2026-05-05 18:59 | -37.17317 | 172.95644 | 24312 ft | 465 kts | 88° |
| 2026-05-05 18:59 | -37.17131 | 172.99667 | 23662 ft | 460 kts | 88° |
| 2026-05-05 18:59 | -37.16946 | 173.03658 | 23051 ft | 454 kts | 88° |
| 2026-05-05 18:59 | -37.16765 | 173.07530 | 22441 ft | 448 kts | 87° |
| 2026-05-05 19:00 | -37.16581 | 173.11417 | 21858 ft | 444 kts | 87° |
| 2026-05-05 19:00 | -37.16399 | 173.15260 | 21264 ft | 441 kts | 86° |
| 2026-05-05 19:00 | -37.16216 | 173.19089 | 20661 ft | 438 kts | 86° |
| 2026-05-05 19:00 | -37.16034 | 173.22882 | 20065 ft | 434 kts | 85° |
| 2026-05-05 19:01 | -37.15852 | 173.26635 | 19474 ft | 429 kts | 85° |
| 2026-05-05 19:01 | -37.15670 | 173.30342 | 18886 ft | 423 kts | 85° |
| 2026-05-05 19:01 | -37.15491 | 173.33992 | 18250 ft | 417 kts | 84° |
| 2026-05-05 19:01 | -37.15311 | 173.37599 | 17673 ft | 412 kts | 84° |
| 2026-05-05 19:02 | -37.15134 | 173.41168 | 17105 ft | 409 kts | 84° |
| 2026-05-05 19:02 | -37.14958 | 173.44700 | 16545 ft | 405 kts | 84° |
| 2026-05-05 19:02 | -37.14770 | 173.48201 | 16001 ft | 401 kts | 83° |
| 2026-05-05 19:02 | -37.14561 | 173.51666 | 15462 ft | 397 kts | 83° |
| 2026-05-05 19:03 | -37.14349 | 173.55100 | 14928 ft | 392 kts | 84° |
| 2026-05-05 19:03 | -37.14140 | 173.58498 | 14411 ft | 389 kts | 83° |
| 2026-05-05 19:03 | -37.13935 | 173.61861 | 13817 ft | 386 kts | 83° |
| 2026-05-05 19:03 | -37.13734 | 173.65190 | 13173 ft | 380 kts | 83° |
| 2026-05-05 19:04 | -37.13535 | 173.68464 | 12541 ft | 374 kts | 84° |
| 2026-05-05 19:04 | -37.13338 | 173.71707 | 11921 ft | 369 kts | 83° |
| 2026-05-05 19:04 | -37.13146 | 173.74879 | 11433 ft | 361 kts | 83° |
| 2026-05-05 19:04 | -37.12956 | 173.77985 | 10948 ft | 354 kts | 83° |
| 2026-05-05 19:05 | -37.12771 | 173.81003 | 10448 ft | 349 kts | 83° |
| 2026-05-05 19:05 | -37.12585 | 173.84022 | 9824 ft | 346 kts | 83° |
| 2026-05-05 19:05 | -37.12399 | 173.87005 | 9124 ft | 339 kts | 83° |
| 2026-05-05 19:05 | -37.12220 | 173.89909 | 8550 ft | 330 kts | 83° |
| 2026-05-05 19:06 | -37.12041 | 173.92749 | 8020 ft | 322 kts | 83° |
| 2026-05-05 19:06 | -37.11867 | 173.95510 | 7522 ft | 314 kts | 83° |
| 2026-05-05 19:06 | -37.11696 | 173.98205 | 7043 ft | 307 kts | 83° |
| 2026-05-05 19:06 | -37.11525 | 174.00845 | 6551 ft | 300 kts | 83° |
| 2026-05-05 19:07 | -37.11356 | 174.03415 | 6209 ft | 290 kts | 83° |
| 2026-05-05 19:07 | -37.11204 | 174.05899 | 6010 ft | 280 kts | 83° |
| 2026-05-05 19:07 | -37.11057 | 174.08254 | 5814 ft | 267 kts | 83° |
| 2026-05-05 19:07 | -37.10918 | 174.10516 | 5608 ft | 262 kts | 83° |
| 2026-05-05 19:08 | -37.10788 | 174.12792 | 5455 ft | 260 kts | 84° |
| 2026-05-05 19:08 | -37.10653 | 174.15053 | 5309 ft | 260 kts | 83° |
| 2026-05-05 19:08 | -37.10516 | 174.17313 | 5161 ft | 260 kts | 83° |
| 2026-05-05 19:08 | -37.10389 | 174.19564 | 5007 ft | 259 kts | 83° |
| 2026-05-05 19:09 | -37.10264 | 174.21806 | 4864 ft | 257 kts | 83° |
| 2026-05-05 19:09 | -37.10162 | 174.24040 | 4706 ft | 257 kts | 85° |
| 2026-05-05 19:09 | -37.10102 | 174.26282 | 4551 ft | 257 kts | 85° |
| 2026-05-05 19:09 | -37.10044 | 174.28519 | 4404 ft | 256 kts | 85° |
| 2026-05-05 19:10 | -37.10045 | 174.30743 | 4281 ft | 256 kts | 90° |
| 2026-05-05 19:10 | -37.10141 | 174.32966 | 4164 ft | 255 kts | 90° |
| 2026-05-05 19:10 | -37.10242 | 174.35156 | 4027 ft | 254 kts | 90° |
| 2026-05-05 19:10 | -37.10341 | 174.37360 | 3913 ft | 254 kts | 90° |
| 2026-05-05 19:11 | -37.10443 | 174.39570 | 3786 ft | 254 kts | 90° |
| 2026-05-05 19:11 | -37.10550 | 174.41780 | 3664 ft | 252 kts | 90° |
| 2026-05-05 19:11 | -37.10562 | 174.43963 | 3563 ft | 249 kts | 81° |
| 2026-05-05 19:11 | -37.10203 | 174.46069 | 3467 ft | 246 kts | 70° |
| 2026-05-05 19:12 | -37.09653 | 174.48080 | 3376 ft | 243 kts | 67° |
| 2026-05-05 19:12 | -37.09093 | 174.50072 | 3265 ft | 243 kts | 68° |
| 2026-05-05 19:12 | -37.08541 | 174.52067 | 3161 ft | 241 kts | 68° |
| 2026-05-05 19:12 | -37.08003 | 174.54009 | 3059 ft | 230 kts | 68° |
| 2026-05-05 19:13 | -37.07490 | 174.55852 | 3000 ft | 219 kts | 68° |
| 2026-05-05 19:13 | -37.07000 | 174.57619 | 3004 ft | 211 kts | 68° |
| 2026-05-05 19:13 | -37.06528 | 174.59331 | 3001 ft | 205 kts | 68° |
| 2026-05-05 19:13 | -37.06069 | 174.60994 | 2738 ft | 199 kts | 67° |
| 2026-05-05 19:14 | -37.05623 | 174.62606 | 2436 ft | 192 kts | 68° |
| 2026-05-05 19:14 | -37.05205 | 174.64112 | 2172 ft | 176 kts | 68° |
| 2026-05-05 19:14 | -37.04812 | 174.65538 | 1937 ft | 172 kts | 68° |
| 2026-05-05 19:14 | -37.04423 | 174.66947 | 1696 ft | 166 kts | 68° |
| 2026-05-05 19:15 | -37.04064 | 174.68248 | 1471 ft | 154 kts | 68° |
| 2026-05-05 19:15 | -37.03730 | 174.69458 | 1278 ft | 138 kts | 68° |
| 2026-05-05 19:15 | -37.03419 | 174.70578 | 1091 ft | 134 kts | 69° |
| 2026-05-05 19:15 | -37.03121 | 174.71668 | 916 ft | 133 kts | 70° |
| 2026-05-05 19:16 | -37.02817 | 174.72772 | 745 ft | 134 kts | 70° |
| 2026-05-05 19:16 | -37.02503 | 174.73861 | 577 ft | 135 kts | 71° |
| 2026-05-05 19:16 | -37.02208 | 174.74978 | 400 ft | 136 kts | 73° |
| 2026-05-05 19:16 | -37.01908 | 174.76099 | 224 ft | 136 kts | 71° |
| 2026-05-05 19:17 | -37.01594 | 174.77212 | 57 ft | 136 kts | 72° |
| 2026-05-05 19:17 | -37.01322 | 174.78208 | 31 ft | 101 kts | 71° |
| 2026-05-05 19:17 | -37.01168 | 174.78756 | 30 ft | 38 kts | 70° |
| 2026-05-05 19:17 | -37.01080 | 174.78954 | 30 ft | 19 kts | 42° |
| 2026-05-05 19:18 | -37.01017 | 174.79021 | 30 ft | 11 kts | 38° |
| 2026-05-05 19:18 | -37.00956 | 174.79081 | 30 ft | 11 kts | 38° |
| 2026-05-05 19:18 | -37.00899 | 174.79080 | 30 ft | 8 kts | 294° |
| 2026-05-05 19:18 | -37.00908 | 174.79009 | 30 ft | 11 kts | 251° |
| 2026-05-05 19:19 | -37.00937 | 174.78898 | 30 ft | 16 kts | 251° |
| 2026-05-05 19:19 | -37.00974 | 174.78763 | 30 ft | 17 kts | 251° |
| 2026-05-05 19:19 | -37.01011 | 174.78627 | 30 ft | 11 kts | 251° |
| 2026-05-05 19:19 | -37.01035 | 174.78539 | 30 ft | 13 kts | 251° |
| 2026-05-05 19:20 | -37.01057 | 174.78439 | 31 ft | 11 kts | 274° |
| 2026-05-05 19:20 | -37.01010 | 174.78379 | 31 ft | 10 kts | 343° |
| 2026-05-05 19:20 | -37.00944 | 174.78366 | 31 ft | 11 kts | 348° |
| 2026-05-05 19:20 | -37.00895 | 174.78338 | 30 ft | 2 kts | 325° |
| 2026-05-05 19:21 | -37.00873 | 174.78319 | 30 ft | 3 kts | 324° |
| 2026-05-05 19:21 | -37.00858 | 174.78305 | 31 ft | 1 kts | 324° |
| 2026-05-05 19:21 | -37.00845 | 174.78294 | 31 ft | 0 kts | 324° |
| 2026-05-05 19:21 | -37.00839 | 174.78288 | 31 ft | 1 kts | 323° |
| 2026-05-05 19:22 | -37.00837 | 174.78286 | 31 ft | 0 kts | 323° |